createdAt,value
2019-04-28T00:00:48.277Z,9.67
2019-04-28T00:01:48.266Z,9.62
2019-04-28T00:02:48.252Z,9.62
2019-04-28T00:03:48.266Z,9.63
2019-04-28T00:04:48.229Z,9.63
2019-04-28T00:05:48.225Z,9.72
2019-04-28T00:06:48.208Z,9.63
2019-04-28T00:07:48.199Z,9.63
2019-04-28T00:08:48.212Z,9.63
2019-04-28T00:09:48.176Z,9.63
2019-04-28T00:10:48.162Z,9.60
2019-04-28T00:11:48.150Z,9.60
2019-04-28T00:12:48.140Z,9.66
2019-04-28T00:13:48.155Z,9.60
2019-04-28T00:14:48.121Z,9.72
2019-04-28T00:15:48.106Z,9.60
2019-04-28T00:16:48.094Z,9.66
2019-04-28T00:17:48.084Z,9.66
2019-04-28T00:18:48.096Z,9.67
2019-04-28T00:19:48.063Z,9.63
2019-04-28T00:20:48.054Z,9.65
2019-04-28T00:21:48.040Z,9.57
2019-04-28T00:22:48.027Z,9.55
2019-04-28T00:23:48.038Z,9.69
2019-04-28T00:24:48.005Z,9.52
2019-04-28T00:25:47.994Z,9.67
2019-04-28T00:26:47.984Z,9.60
2019-04-28T00:27:47.971Z,9.60
2019-04-28T00:28:47.987Z,9.55
2019-04-28T00:29:47.952Z,9.57
2019-04-28T00:30:47.938Z,9.54
2019-04-28T00:31:47.927Z,9.63
2019-04-28T00:32:47.916Z,9.52
2019-04-28T00:33:47.947Z,9.59
2019-04-28T00:34:47.893Z,9.54
2019-04-28T00:35:47.886Z,9.59
2019-04-28T00:36:47.872Z,9.55
2019-04-28T00:37:47.862Z,9.62
2019-04-28T00:38:47.871Z,9.63
2019-04-28T00:39:47.838Z,9.60
2019-04-28T00:40:47.826Z,9.62
2019-04-28T00:41:47.815Z,9.54
2019-04-28T00:42:47.816Z,9.55
2019-04-28T00:43:47.819Z,9.59
2019-04-28T00:44:47.782Z,9.60
2019-04-28T00:45:47.769Z,9.50
2019-04-28T00:46:47.774Z,9.62
2019-04-28T00:47:47.747Z,9.55
2019-04-28T00:48:47.762Z,9.52
2019-04-28T00:49:47.728Z,9.57
2019-04-28T00:50:47.718Z,9.54
2019-04-28T00:51:47.704Z,9.57
2019-04-28T00:52:47.694Z,9.52
2019-04-28T00:53:47.702Z,9.51
2019-04-28T00:54:47.668Z,9.54
2019-04-28T00:55:47.659Z,9.57
2019-04-28T00:56:47.647Z,9.55
2019-04-28T00:57:47.634Z,9.48
2019-04-28T00:58:47.652Z,9.51
2019-04-28T00:59:56.878Z,9.51
2019-04-28T01:00:47.603Z,9.45
2019-04-28T01:01:47.592Z,9.42
2019-04-28T01:02:47.580Z,9.48
2019-04-28T01:03:47.592Z,9.57
2019-04-28T01:04:47.555Z,9.50
2019-04-28T01:05:47.548Z,9.55
2019-04-28T01:06:47.535Z,9.55
2019-04-28T01:07:47.521Z,9.60
2019-04-28T01:08:47.539Z,9.55
2019-04-28T01:09:47.498Z,9.51
2019-04-28T01:10:47.488Z,9.54
2019-04-28T01:11:47.478Z,9.52
2019-04-28T01:12:47.467Z,9.54
2019-04-28T01:13:47.482Z,9.55
2019-04-28T01:14:49.424Z,9.52
2019-04-28T01:15:47.432Z,9.57
2019-04-28T01:16:47.419Z,9.47
2019-04-28T01:17:47.409Z,9.54
2019-04-28T01:18:47.421Z,9.50
2019-04-28T01:19:47.385Z,9.54
2019-04-28T01:20:47.375Z,9.55
2019-04-28T01:21:47.364Z,9.54
2019-04-28T01:22:47.357Z,9.55
2019-04-28T01:23:47.368Z,9.55
2019-04-28T01:24:47.329Z,9.50
2019-04-28T01:25:47.318Z,9.54
2019-04-28T01:26:47.307Z,9.47
2019-04-28T01:27:47.295Z,9.54
2019-04-28T01:28:47.310Z,9.44
2019-04-28T01:29:47.274Z,9.44
2019-04-28T01:30:47.261Z,9.47
2019-04-28T01:31:47.258Z,9.40
2019-04-28T01:32:47.241Z,9.47
2019-04-28T01:33:47.251Z,9.44
2019-04-28T01:34:47.220Z,9.44
2019-04-28T01:35:47.209Z,9.47
2019-04-28T01:36:47.195Z,9.48
2019-04-28T01:37:47.191Z,9.42
2019-04-28T01:38:47.200Z,9.44
2019-04-28T01:39:47.160Z,9.41
2019-04-28T01:40:47.153Z,9.45
2019-04-28T01:41:47.137Z,9.47
2019-04-28T01:42:47.128Z,9.50
2019-04-28T01:43:47.144Z,9.42
2019-04-28T01:44:47.110Z,9.41
2019-04-28T01:45:47.093Z,9.47
2019-04-28T01:46:47.080Z,9.45
2019-04-28T01:47:47.070Z,9.34
2019-04-28T01:48:47.114Z,9.36
2019-04-28T01:49:47.049Z,9.34
2019-04-28T01:50:47.035Z,9.34
2019-04-28T01:51:47.028Z,9.34
2019-04-28T01:52:47.013Z,9.41
2019-04-28T01:53:47.029Z,9.34
2019-04-28T01:54:46.989Z,9.33
2019-04-28T01:55:46.981Z,9.40
2019-04-28T01:56:46.966Z,9.40
2019-04-28T01:57:46.956Z,9.42
2019-04-28T01:58:46.968Z,9.34
2019-04-28T01:59:46.938Z,9.48
2019-04-28T02:00:46.923Z,9.34
2019-04-28T02:01:46.910Z,9.44
2019-04-28T02:02:46.898Z,9.36
2019-04-28T02:03:46.912Z,9.37
2019-04-28T02:04:46.876Z,9.42
2019-04-28T02:05:46.867Z,9.32
2019-04-28T02:06:46.856Z,9.30
2019-04-28T02:07:46.856Z,9.33
2019-04-28T02:08:46.860Z,9.34
2019-04-28T02:09:46.820Z,9.29
2019-04-28T02:10:46.811Z,9.36
2019-04-28T02:11:46.799Z,9.32
2019-04-28T02:12:46.787Z,9.30
2019-04-28T02:13:46.798Z,9.29
2019-04-28T02:14:46.770Z,9.36
2019-04-28T02:15:46.754Z,9.36
2019-04-28T02:16:46.741Z,9.32
2019-04-28T02:17:46.729Z,9.33
2019-04-28T02:18:46.773Z,9.29
2019-04-28T02:19:46.707Z,9.24
2019-04-28T02:20:46.695Z,9.27
2019-04-28T02:21:46.685Z,9.30
2019-04-28T02:22:46.673Z,9.27
2019-04-28T02:23:46.690Z,9.29
2019-04-28T02:24:46.650Z,9.29
2019-04-28T02:25:46.647Z,9.32
2019-04-28T02:26:46.632Z,9.33
2019-04-28T02:27:46.617Z,9.34
2019-04-28T02:28:46.627Z,9.29
2019-04-28T02:29:46.593Z,9.32
2019-04-28T02:30:50.381Z,9.33
2019-04-28T02:31:46.574Z,9.29
2019-04-28T02:32:46.568Z,9.36
2019-04-28T02:33:46.575Z,9.41
2019-04-28T02:34:46.538Z,9.37
2019-04-28T02:35:46.532Z,9.37
2019-04-28T02:36:46.515Z,9.41
2019-04-28T02:37:46.507Z,9.32
2019-04-28T02:38:46.538Z,9.27
2019-04-28T02:39:46.481Z,9.29
2019-04-28T02:40:46.469Z,9.30
2019-04-28T02:41:46.466Z,9.34
2019-04-28T02:42:46.492Z,9.34
2019-04-28T02:43:46.464Z,9.33
2019-04-28T02:44:46.427Z,9.30
2019-04-28T02:45:46.414Z,9.34
2019-04-28T02:46:46.419Z,9.22
2019-04-28T02:47:46.425Z,9.29
2019-04-28T02:48:46.434Z,9.36
2019-04-28T02:49:46.419Z,9.23
2019-04-28T02:50:46.359Z,9.32
2019-04-28T02:51:46.349Z,9.32
2019-04-28T02:52:46.336Z,9.34
2019-04-28T02:53:46.349Z,9.40
2019-04-28T02:54:46.313Z,9.33
2019-04-28T02:55:46.344Z,9.33
2019-04-28T02:56:46.292Z,9.37
2019-04-28T02:57:46.279Z,9.32
2019-04-28T02:58:46.314Z,9.34
2019-04-28T02:59:46.258Z,9.32
2019-04-28T03:01:00.977Z,9.27
2019-04-28T03:01:46.239Z,9.30
2019-04-28T03:02:46.223Z,9.30
2019-04-28T03:03:46.238Z,9.27
2019-04-28T03:04:46.201Z,9.33
2019-04-28T03:05:46.189Z,9.34
2019-04-28T03:06:46.175Z,9.36
2019-04-28T03:07:46.164Z,9.32
2019-04-28T03:08:46.177Z,9.32
2019-04-28T03:09:46.144Z,9.32
2019-04-28T03:10:46.132Z,9.32
2019-04-28T03:11:46.119Z,9.33
2019-04-28T03:12:46.109Z,9.32
2019-04-28T03:13:46.125Z,9.33
2019-04-28T03:14:46.088Z,9.40
2019-04-28T03:15:46.073Z,9.30
2019-04-28T03:16:46.067Z,9.29
2019-04-28T03:17:46.053Z,9.33
2019-04-28T03:18:46.065Z,9.30
2019-04-28T03:19:46.094Z,9.33
2019-04-28T03:20:46.018Z,9.32
2019-04-28T03:21:46.007Z,9.32
2019-04-28T03:22:45.996Z,9.32
2019-04-28T03:23:46.009Z,9.34
2019-04-28T03:24:45.975Z,9.32
2019-04-28T03:25:45.965Z,9.32
2019-04-28T03:26:45.951Z,9.24
2019-04-28T03:27:45.944Z,9.24
2019-04-28T03:28:45.953Z,9.26
2019-04-28T03:29:45.934Z,9.32
2019-04-28T03:30:45.915Z,9.26
2019-04-28T03:32:11.923Z,9.23
2019-04-28T03:32:53.699Z,9.29
2019-04-28T03:33:49.035Z,9.30
2019-04-28T03:34:45.863Z,9.23
2019-04-28T03:35:45.849Z,9.26
2019-04-28T03:36:45.845Z,9.18
2019-04-28T03:37:45.827Z,9.26
2019-04-28T03:38:45.842Z,9.27
2019-04-28T03:39:45.804Z,9.22
2019-04-28T03:40:45.792Z,9.24
2019-04-28T03:41:45.781Z,9.15
2019-04-28T03:42:45.770Z,9.23
2019-04-28T03:43:45.786Z,9.11
2019-04-28T03:44:45.784Z,9.09
2019-04-28T03:45:45.736Z,9.22
2019-04-28T03:46:45.725Z,9.23
2019-04-28T03:47:45.723Z,9.19
2019-04-28T03:48:45.731Z,9.23
2019-04-28T03:49:45.690Z,9.18
2019-04-28T03:50:45.690Z,9.24
2019-04-28T03:51:45.672Z,9.22
2019-04-28T03:52:45.656Z,9.27
2019-04-28T03:53:45.672Z,9.24
2019-04-28T03:54:45.634Z,9.23
2019-04-28T03:55:45.623Z,9.19
2019-04-28T03:56:45.614Z,9.22
2019-04-28T03:57:45.600Z,9.11
2019-04-28T03:58:45.592Z,9.11
2019-04-28T03:59:45.606Z,9.16
2019-04-28T04:00:45.623Z,9.12
2019-04-28T04:01:56.656Z,8.99
2019-04-28T04:02:46.546Z,8.99
2019-04-28T04:03:45.534Z,9.08
2019-04-28T04:04:45.547Z,9.08
2019-04-28T04:05:45.513Z,9.09
2019-04-28T04:06:45.501Z,9.08
2019-04-28T04:07:45.487Z,9.01
2019-04-28T04:08:45.482Z,9.04
2019-04-28T04:09:45.489Z,9.03
2019-04-28T04:10:45.453Z,9.01
2019-04-28T04:11:45.451Z,9.09
2019-04-28T04:12:45.430Z,9.08
2019-04-28T04:13:45.417Z,9.09
2019-04-28T04:14:45.432Z,9.11
2019-04-28T04:15:49.541Z,9.08
2019-04-28T04:16:45.389Z,9.11
2019-04-28T04:17:45.377Z,9.11
2019-04-28T04:18:45.365Z,9.14
2019-04-28T04:19:45.379Z,9.15
2019-04-28T04:20:45.361Z,9.11
2019-04-28T04:21:45.333Z,9.15
2019-04-28T04:22:45.319Z,9.18
2019-04-28T04:23:45.309Z,9.16
2019-04-28T04:24:45.339Z,9.22
2019-04-28T04:25:45.398Z,9.26
2019-04-28T04:26:45.270Z,9.26
2019-04-28T04:27:45.264Z,9.12
2019-04-28T04:28:45.262Z,9.22
2019-04-28T04:29:45.265Z,9.16
2019-04-28T04:30:45.232Z,9.19
2019-04-28T04:31:45.217Z,9.15
2019-04-28T04:32:45.203Z,9.15
2019-04-28T04:33:45.194Z,9.12
2019-04-28T04:34:45.202Z,9.11
2019-04-28T04:35:45.172Z,9.12
2019-04-28T04:36:45.158Z,9.15
2019-04-28T04:37:45.147Z,9.03
2019-04-28T04:38:46.419Z,9.04
2019-04-28T04:39:45.149Z,9.12
2019-04-28T04:40:45.117Z,9.08
2019-04-28T04:41:45.104Z,9.12
2019-04-28T04:42:45.089Z,9.12
2019-04-28T04:43:45.079Z,9.15
2019-04-28T04:44:45.096Z,9.19
2019-04-28T04:45:45.057Z,9.16
2019-04-28T04:46:45.050Z,9.23
2019-04-28T04:47:45.037Z,9.18
2019-04-28T04:48:45.031Z,9.18
2019-04-28T04:49:45.034Z,9.24
2019-04-28T04:50:45.001Z,9.16
2019-04-28T04:51:44.989Z,9.22
2019-04-28T04:52:44.976Z,9.24
2019-04-28T04:53:44.966Z,9.18
2019-04-28T04:54:44.979Z,9.24
2019-04-28T04:55:44.947Z,9.15
2019-04-28T04:56:44.932Z,9.19
2019-04-28T04:57:44.919Z,9.26
2019-04-28T04:58:44.910Z,9.22
2019-04-28T04:59:44.923Z,9.12
2019-04-28T05:00:44.888Z,9.19
2019-04-28T05:01:44.881Z,9.16
2019-04-28T05:02:51.570Z,9.12
2019-04-28T05:03:44.899Z,9.15
2019-04-28T05:04:44.863Z,9.14
2019-04-28T05:05:44.829Z,9.14
2019-04-28T05:06:44.819Z,9.14
2019-04-28T05:07:44.813Z,9.12
2019-04-28T05:08:44.800Z,9.09
2019-04-28T05:09:44.857Z,9.04
2019-04-28T05:10:44.789Z,9.08
2019-04-28T05:11:44.763Z,9.04
2019-04-28T05:12:44.752Z,9.11
2019-04-28T05:13:44.743Z,9.11
2019-04-28T05:14:44.751Z,9.03
2019-04-28T05:15:44.716Z,9.12
2019-04-28T05:16:44.707Z,9.04
2019-04-28T05:17:44.706Z,9.08
2019-04-28T05:18:44.682Z,9.16
2019-04-28T05:19:44.698Z,9.09
2019-04-28T05:20:44.660Z,9.06
2019-04-28T05:21:44.649Z,8.99
2019-04-28T05:22:44.639Z,8.88
2019-04-28T05:23:44.636Z,9.01
2019-04-28T05:24:46.276Z,8.99
2019-04-28T05:25:44.607Z,8.93
2019-04-28T05:26:47.774Z,8.95
2019-04-28T05:27:44.584Z,8.80
2019-04-28T05:28:51.519Z,8.98
2019-04-28T05:29:45.584Z,8.95
2019-04-28T05:30:44.560Z,8.93
2019-04-28T05:31:44.537Z,8.95
2019-04-28T05:32:49.507Z,8.93
2019-04-28T05:33:44.516Z,8.89
2019-04-28T05:34:46.458Z,8.93
2019-04-28T05:35:44.494Z,8.98
2019-04-28T05:36:44.839Z,8.93
2019-04-28T05:37:44.471Z,9.03
2019-04-28T05:38:44.457Z,9.08
2019-04-28T05:39:44.471Z,8.95
2019-04-28T05:40:44.435Z,8.85
2019-04-28T05:41:44.423Z,8.96
2019-04-28T05:42:44.414Z,8.98
2019-04-28T05:43:44.404Z,9.04
2019-04-28T05:44:44.415Z,8.98
2019-04-28T05:45:44.381Z,9.03
2019-04-28T05:46:44.371Z,8.96
2019-04-28T05:47:44.358Z,8.99
2019-04-28T05:48:44.349Z,8.98
2019-04-28T05:49:44.358Z,8.95
2019-04-28T05:50:44.325Z,9.11
2019-04-28T05:51:44.310Z,9.04
2019-04-28T05:52:44.299Z,9.03
2019-04-28T05:53:44.294Z,9.01
2019-04-28T05:54:44.305Z,9.03
2019-04-28T05:55:44.280Z,8.98
2019-04-28T05:56:44.254Z,9.03
2019-04-28T05:57:44.243Z,9.03
2019-04-28T05:58:44.234Z,9.14
2019-04-28T05:59:44.244Z,9.11
2019-04-28T06:00:44.210Z,9.08
2019-04-28T06:01:44.197Z,9.11
2019-04-28T06:02:54.183Z,9.03
2019-04-28T06:03:44.180Z,9.14
2019-04-28T06:04:44.186Z,9.12
2019-04-28T06:05:44.154Z,9.03
2019-04-28T06:06:44.148Z,9.09
2019-04-28T06:07:44.135Z,9.14
2019-04-28T06:08:44.121Z,9.01
2019-04-28T06:09:44.159Z,9.06
2019-04-28T06:10:44.096Z,9.03
2019-04-28T06:11:44.085Z,9.12
2019-04-28T06:12:44.085Z,9.11
2019-04-28T06:13:44.066Z,9.15
2019-04-28T06:14:44.078Z,9.16
2019-04-28T06:15:44.041Z,9.22
2019-04-28T06:16:44.045Z,9.27
2019-04-28T06:17:44.017Z,9.18
2019-04-28T06:18:44.007Z,9.24
2019-04-28T06:19:44.018Z,9.24
2019-04-28T06:20:43.983Z,9.24
2019-04-28T06:21:43.971Z,9.34
2019-04-28T06:22:43.963Z,9.30
2019-04-28T06:23:43.950Z,9.29
2019-04-28T06:24:43.995Z,9.30
2019-04-28T06:25:43.927Z,9.36
2019-04-28T06:26:43.918Z,9.33
2019-04-28T06:27:43.904Z,9.32
2019-04-28T06:28:43.895Z,9.24
2019-04-28T06:29:43.915Z,9.34
2019-04-28T06:30:43.870Z,9.36
2019-04-28T06:31:43.861Z,9.33
2019-04-28T06:32:43.848Z,9.32
2019-04-28T06:33:44.601Z,9.44
2019-04-28T06:34:43.856Z,9.48
2019-04-28T06:35:43.814Z,9.48
2019-04-28T06:36:43.802Z,9.50
2019-04-28T06:37:43.790Z,9.55
2019-04-28T06:38:43.789Z,9.52
2019-04-28T06:39:43.878Z,9.60
2019-04-28T06:40:43.760Z,9.55
2019-04-28T06:41:43.745Z,9.54
2019-04-28T06:42:43.734Z,9.66
2019-04-28T06:43:43.723Z,9.52
2019-04-28T06:44:43.736Z,9.66
2019-04-28T06:45:43.701Z,9.51
2019-04-28T06:46:43.689Z,9.60
2019-04-28T06:47:43.686Z,9.65
2019-04-28T06:48:43.752Z,9.65
2019-04-28T06:49:43.682Z,9.60
2019-04-28T06:50:43.645Z,9.57
2019-04-28T06:51:43.632Z,9.57
2019-04-28T06:52:43.622Z,9.62
2019-04-28T06:53:43.609Z,9.65
2019-04-28T06:54:43.725Z,9.70
2019-04-28T06:55:43.590Z,9.69
2019-04-28T06:56:43.584Z,9.69
2019-04-28T06:57:43.567Z,9.69
2019-04-28T06:58:43.556Z,9.75
2019-04-28T06:59:43.546Z,9.73
2019-04-28T07:00:43.554Z,9.77
2019-04-28T07:01:43.523Z,9.70
2019-04-28T07:02:43.509Z,9.73
2019-04-28T07:03:43.499Z,9.72
2019-04-28T07:04:43.490Z,9.77
2019-04-28T07:05:43.497Z,9.73
2019-04-28T07:06:43.463Z,9.80
2019-04-28T07:07:43.457Z,9.77
2019-04-28T07:08:43.443Z,9.75
2019-04-28T07:09:43.438Z,9.77
2019-04-28T07:10:43.441Z,9.80
2019-04-28T07:11:43.407Z,9.80
2019-04-28T07:12:43.395Z,9.77
2019-04-28T07:13:43.387Z,9.78
2019-04-28T07:14:43.373Z,9.83
2019-04-28T07:15:43.390Z,9.84
2019-04-28T07:16:43.350Z,9.85
2019-04-28T07:17:43.339Z,9.90
2019-04-28T07:18:43.328Z,9.85
2019-04-28T07:19:43.332Z,9.88
2019-04-28T07:20:43.331Z,9.83
2019-04-28T07:21:43.293Z,9.85
2019-04-28T07:22:43.285Z,9.96
2019-04-28T07:23:43.270Z,9.91
2019-04-28T07:24:44.899Z,9.91
2019-04-28T07:25:43.273Z,9.96
2019-04-28T07:26:43.238Z,10.06
2019-04-28T07:27:43.228Z,10.05
2019-04-28T07:28:43.213Z,10.10
2019-04-28T07:29:43.203Z,10.12
2019-04-28T07:30:43.217Z,10.14
2019-04-28T07:31:43.180Z,10.21
2019-04-28T07:32:43.173Z,10.16
2019-04-28T07:33:43.160Z,10.23
2019-04-28T07:34:43.146Z,10.14
2019-04-28T07:35:43.163Z,10.17
2019-04-28T07:36:43.128Z,10.17
2019-04-28T07:37:43.122Z,10.14
2019-04-28T07:38:43.101Z,10.20
2019-04-28T07:39:43.088Z,10.08
2019-04-28T07:40:43.104Z,10.10
2019-04-28T07:41:43.068Z,10.14
2019-04-28T07:42:43.059Z,10.23
2019-04-28T07:43:43.043Z,10.26
2019-04-28T07:44:43.032Z,10.27
2019-04-28T07:45:43.048Z,10.34
2019-04-28T07:46:43.010Z,10.36
2019-04-28T07:47:43.001Z,10.46
2019-04-28T07:48:42.990Z,10.57
2019-04-28T07:49:42.976Z,10.52
2019-04-28T07:50:43.061Z,10.60
2019-04-28T07:51:42.956Z,10.62
2019-04-28T07:52:42.945Z,10.60
2019-04-28T07:53:42.935Z,10.68
2019-04-28T07:54:42.921Z,10.68
2019-04-28T07:55:42.948Z,10.67
2019-04-28T07:56:42.901Z,10.80
2019-04-28T07:57:42.900Z,10.91
2019-04-28T07:58:42.878Z,10.91
2019-04-28T07:59:42.868Z,11.08
2019-04-28T08:00:42.878Z,11.00
2019-04-28T08:01:42.855Z,11.04
2019-04-28T08:02:42.834Z,11.12
2019-04-28T08:03:49.384Z,11.19
2019-04-28T08:04:42.812Z,11.18
2019-04-28T08:05:42.822Z,11.18
2019-04-28T08:06:42.786Z,11.23
2019-04-28T08:07:42.774Z,11.40
2019-04-28T08:08:42.766Z,11.37
2019-04-28T08:09:42.752Z,11.45
2019-04-28T08:10:42.768Z,11.54
2019-04-28T08:11:42.736Z,11.58
2019-04-28T08:12:42.718Z,11.70
2019-04-28T08:13:42.707Z,11.82
2019-04-28T08:14:42.699Z,12.00
2019-04-28T08:15:42.712Z,12.11
2019-04-28T08:16:42.674Z,12.25
2019-04-28T08:17:42.662Z,12.35
2019-04-28T08:18:42.666Z,12.43
2019-04-28T08:19:42.640Z,12.59
2019-04-28T08:20:42.657Z,12.66
2019-04-28T08:21:42.622Z,12.76
2019-04-28T08:22:42.608Z,12.77
2019-04-28T08:23:47.283Z,12.80
2019-04-28T08:24:42.589Z,12.88
2019-04-28T08:25:42.599Z,12.86
2019-04-28T08:26:42.561Z,12.88
2019-04-28T08:27:42.552Z,12.83
2019-04-28T08:28:42.548Z,12.87
2019-04-28T08:29:42.532Z,12.86
2019-04-28T08:30:42.563Z,12.80
2019-04-28T08:31:42.511Z,12.80
2019-04-28T08:32:42.525Z,12.84
2019-04-28T08:33:42.484Z,12.84
2019-04-28T08:34:42.480Z,12.88
2019-04-28T08:35:42.503Z,12.96
2019-04-28T08:36:42.453Z,13.06
2019-04-28T08:37:42.443Z,13.13
2019-04-28T08:38:42.428Z,13.27
2019-04-28T08:39:42.444Z,13.16
2019-04-28T08:40:42.406Z,13.06
2019-04-28T08:41:42.420Z,13.08
2019-04-28T08:42:42.386Z,13.02
2019-04-28T08:43:42.376Z,13.06
2019-04-28T08:44:42.362Z,13.05
2019-04-28T08:45:42.351Z,13.04
2019-04-28T08:46:42.366Z,12.95
2019-04-28T08:47:42.333Z,12.91
2019-04-28T08:48:42.319Z,12.96
2019-04-28T08:49:42.305Z,12.90
2019-04-28T08:50:42.294Z,12.91
2019-04-28T08:51:42.309Z,12.87
2019-04-28T08:52:42.277Z,12.99
2019-04-28T08:53:42.264Z,12.95
2019-04-28T08:54:42.255Z,12.98
2019-04-28T08:55:42.240Z,12.91
2019-04-28T08:56:42.258Z,12.90
2019-04-28T08:57:42.230Z,12.93
2019-04-28T08:58:42.208Z,12.81
2019-04-28T08:59:42.197Z,12.81
2019-04-28T09:00:42.185Z,12.83
2019-04-28T09:01:42.200Z,12.87
2019-04-28T09:02:42.165Z,12.95
2019-04-28T09:03:42.159Z,12.90
2019-04-28T09:04:42.139Z,13.01
2019-04-28T09:05:42.132Z,13.06
2019-04-28T09:06:42.198Z,13.20
2019-04-28T09:07:42.109Z,13.26
2019-04-28T09:08:42.096Z,13.46
2019-04-28T09:09:42.086Z,13.43
2019-04-28T09:10:42.072Z,13.54
2019-04-28T09:11:42.086Z,13.60
2019-04-28T09:12:42.052Z,13.72
2019-04-28T09:13:43.866Z,13.61
2019-04-28T09:14:42.035Z,13.65
2019-04-28T09:15:42.041Z,13.68
2019-04-28T09:16:42.033Z,13.83
2019-04-28T09:17:41.995Z,13.86
2019-04-28T09:18:41.986Z,13.67
2019-04-28T09:19:42.484Z,13.73
2019-04-28T09:20:41.962Z,13.71
2019-04-28T09:21:41.974Z,13.58
2019-04-28T09:22:41.937Z,13.45
2019-04-28T09:23:41.926Z,13.49
2019-04-28T09:24:41.916Z,13.32
2019-04-28T09:25:41.907Z,13.38
2019-04-28T09:26:41.919Z,13.24
2019-04-28T09:27:41.882Z,13.23
2019-04-28T09:28:41.872Z,13.16
2019-04-28T09:29:41.864Z,13.05
2019-04-28T09:30:41.851Z,13.08
2019-04-28T09:31:41.861Z,13.01
2019-04-28T09:32:41.848Z,13.13
2019-04-28T09:33:41.818Z,13.08
2019-04-28T09:34:41.813Z,13.04
2019-04-28T09:35:41.799Z,13.05
2019-04-28T09:36:41.806Z,13.13
2019-04-28T09:37:41.774Z,13.16
2019-04-28T09:38:41.759Z,13.20
2019-04-28T09:39:41.749Z,13.16
2019-04-28T09:40:41.736Z,13.16
2019-04-28T09:41:41.752Z,13.16
2019-04-28T09:42:41.718Z,13.14
2019-04-28T09:43:41.705Z,13.17
2019-04-28T09:44:41.693Z,13.06
2019-04-28T09:45:41.683Z,13.05
2019-04-28T09:46:41.694Z,13.14
2019-04-28T09:47:41.663Z,12.99
2019-04-28T09:48:41.649Z,13.04
2019-04-28T09:49:41.637Z,13.06
2019-04-28T09:50:41.626Z,12.99
2019-04-28T09:51:41.641Z,13.01
2019-04-28T09:52:41.607Z,13.02
2019-04-28T09:53:41.596Z,12.91
2019-04-28T09:54:41.590Z,12.88
2019-04-28T09:55:41.570Z,13.04
2019-04-28T09:56:41.585Z,13.02
2019-04-28T09:57:41.602Z,13.05
2019-04-28T09:58:41.537Z,13.01
2019-04-28T09:59:41.527Z,13.08
2019-04-28T10:00:41.515Z,13.04
2019-04-28T10:01:41.540Z,12.98
2019-04-28T10:02:41.496Z,13.04
2019-04-28T10:03:41.485Z,13.04
2019-04-28T10:04:42.230Z,13.09
2019-04-28T10:05:41.464Z,13.04
2019-04-28T10:06:41.455Z,13.02
2019-04-28T10:07:41.462Z,13.01
2019-04-28T10:08:41.426Z,12.99
2019-04-28T10:09:41.419Z,12.87
2019-04-28T10:10:41.403Z,12.88
2019-04-28T10:11:41.392Z,12.93
2019-04-28T10:12:41.404Z,12.95
2019-04-28T10:13:41.369Z,12.96
2019-04-28T10:14:41.366Z,12.96
2019-04-28T10:15:41.348Z,12.99
2019-04-28T10:16:41.339Z,12.93
2019-04-28T10:17:41.354Z,12.96
2019-04-28T10:18:41.313Z,12.93
2019-04-28T10:19:41.302Z,12.96
2019-04-28T10:20:41.291Z,12.93
2019-04-28T10:21:41.282Z,12.93
2019-04-28T10:22:41.297Z,12.88
2019-04-28T10:23:41.260Z,12.87
2019-04-28T10:24:41.248Z,12.87
2019-04-28T10:25:41.238Z,12.87
2019-04-28T10:26:41.225Z,12.81
2019-04-28T10:27:41.244Z,12.83
2019-04-28T10:28:41.206Z,12.81
2019-04-28T10:29:41.194Z,12.90
2019-04-28T10:30:41.181Z,12.88
2019-04-28T10:31:41.171Z,12.99
2019-04-28T10:32:41.183Z,13.04
2019-04-28T10:33:41.146Z,13.01
2019-04-28T10:34:53.973Z,13.16
2019-04-28T10:35:41.127Z,13.13
2019-04-28T10:36:41.112Z,13.16
2019-04-28T10:37:41.126Z,13.20
2019-04-28T10:38:41.090Z,13.09
2019-04-28T10:39:41.081Z,13.14
2019-04-28T10:40:41.070Z,13.06
2019-04-28T10:41:41.058Z,12.98
2019-04-28T10:42:41.072Z,12.88
2019-04-28T10:43:41.040Z,12.96
2019-04-28T10:44:41.024Z,12.95
2019-04-28T10:45:41.027Z,12.95
2019-04-28T10:46:41.003Z,12.96
2019-04-28T10:47:41.017Z,12.91
2019-04-28T10:48:40.981Z,12.87
2019-04-28T10:49:40.969Z,12.88
2019-04-28T10:50:40.957Z,12.86
2019-04-28T10:51:40.953Z,12.88
2019-04-28T10:52:40.966Z,12.87
2019-04-28T10:53:40.926Z,12.80
2019-04-28T10:54:40.913Z,12.79
2019-04-28T10:55:40.902Z,12.81
2019-04-28T10:56:40.891Z,12.77
2019-04-28T10:57:40.904Z,12.72
2019-04-28T10:58:40.871Z,12.72
2019-04-28T10:59:40.856Z,12.61
2019-04-28T11:00:40.845Z,12.58
2019-04-28T11:01:40.835Z,12.55
2019-04-28T11:02:40.849Z,12.59
2019-04-28T11:03:40.813Z,12.51
2019-04-28T11:04:40.801Z,12.38
2019-04-28T11:05:40.793Z,12.41
2019-04-28T11:06:40.779Z,12.35
2019-04-28T11:07:40.792Z,12.32
2019-04-28T11:08:40.760Z,12.44
2019-04-28T11:09:40.746Z,12.40
2019-04-28T11:10:40.735Z,12.41
2019-04-28T11:11:40.724Z,12.38
2019-04-28T11:12:40.739Z,12.38
2019-04-28T11:13:40.705Z,12.32
2019-04-28T11:14:40.691Z,12.29
2019-04-28T11:15:40.680Z,12.32
2019-04-28T11:16:40.667Z,12.26
2019-04-28T11:17:40.688Z,12.29
2019-04-28T11:18:40.646Z,12.32
2019-04-28T11:19:40.635Z,12.38
2019-04-28T11:20:40.629Z,12.50
2019-04-28T11:21:40.614Z,12.55
2019-04-28T11:22:40.625Z,12.59
2019-04-28T11:23:40.596Z,12.77
2019-04-28T11:24:40.580Z,12.66
2019-04-28T11:25:40.568Z,12.66
2019-04-28T11:26:40.564Z,12.71
2019-04-28T11:27:40.579Z,12.73
2019-04-28T11:28:40.542Z,12.79
2019-04-28T11:29:40.529Z,12.79
2019-04-28T11:30:40.522Z,12.80
2019-04-28T11:31:40.503Z,12.80
2019-04-28T11:32:40.512Z,12.71
2019-04-28T11:33:40.519Z,12.72
2019-04-28T11:34:40.469Z,12.69
2019-04-28T11:35:40.460Z,12.80
2019-04-28T11:36:40.443Z,12.69
2019-04-28T11:37:40.462Z,12.65
2019-04-28T11:38:40.445Z,12.69
2019-04-28T11:39:40.417Z,12.65
2019-04-28T11:40:40.399Z,12.63
2019-04-28T11:41:40.388Z,12.61
2019-04-28T11:42:40.378Z,12.62
2019-04-28T11:43:40.395Z,12.65
2019-04-28T11:44:40.357Z,12.63
2019-04-28T11:45:40.349Z,12.66
2019-04-28T11:46:40.336Z,12.79
2019-04-28T11:47:40.321Z,12.73
2019-04-28T11:48:40.336Z,12.73
2019-04-28T11:49:40.306Z,12.76
2019-04-28T11:50:40.288Z,12.77
2019-04-28T11:51:40.280Z,12.66
2019-04-28T11:52:40.267Z,12.58
2019-04-28T11:53:40.279Z,12.48
2019-04-28T11:54:40.249Z,12.38
2019-04-28T11:55:40.243Z,12.36
2019-04-28T11:56:41.695Z,12.44
2019-04-28T11:57:40.211Z,12.43
2019-04-28T11:58:40.224Z,12.36
2019-04-28T11:59:40.189Z,12.38
2019-04-28T12:00:40.179Z,12.43
2019-04-28T12:01:40.178Z,12.53
2019-04-28T12:02:40.156Z,12.54
2019-04-28T12:03:40.167Z,12.72
2019-04-28T12:04:40.136Z,12.79
2019-04-28T12:05:40.122Z,12.88
2019-04-28T12:06:40.110Z,13.01
2019-04-28T12:07:40.100Z,13.27
2019-04-28T12:08:40.110Z,13.51
2019-04-28T12:09:40.079Z,13.72
2019-04-28T12:10:40.064Z,14.05
2019-04-28T12:11:40.054Z,14.37
2019-04-28T12:12:40.079Z,14.83
2019-04-28T12:13:40.076Z,15.08
2019-04-28T12:14:40.020Z,15.58
2019-04-28T12:15:40.010Z,16.08
2019-04-28T12:16:39.998Z,16.40
2019-04-28T12:17:39.989Z,16.64
2019-04-28T12:18:40.008Z,16.79
2019-04-28T12:19:39.966Z,16.92
2019-04-28T12:20:39.958Z,16.94
2019-04-28T12:21:39.946Z,16.95
2019-04-28T12:22:39.934Z,17.04
2019-04-28T12:23:39.949Z,17.20
2019-04-28T12:24:39.913Z,17.28
2019-04-28T12:25:39.901Z,17.57
2019-04-28T12:26:39.892Z,17.75
2019-04-28T12:27:39.878Z,17.78
2019-04-28T12:28:39.891Z,17.76
2019-04-28T12:29:39.862Z,17.62
2019-04-28T12:30:39.844Z,17.45
2019-04-28T12:31:39.834Z,17.30
2019-04-28T12:32:39.822Z,17.24
2019-04-28T12:33:39.835Z,17.20
2019-04-28T12:34:39.848Z,17.19
2019-04-28T12:35:47.655Z,17.24
2019-04-28T12:36:39.788Z,17.35
2019-04-28T12:37:39.771Z,17.50
2019-04-28T12:38:39.784Z,17.93
2019-04-28T12:39:39.746Z,18.21
2019-04-28T12:40:39.739Z,18.54
2019-04-28T12:41:39.725Z,18.71
2019-04-28T12:42:39.716Z,18.86
2019-04-28T12:43:39.729Z,18.85
2019-04-28T12:44:39.696Z,19.15
2019-04-28T12:45:39.688Z,19.22
2019-04-28T12:46:39.673Z,19.24
2019-04-28T12:47:39.660Z,19.44
2019-04-28T12:48:39.676Z,19.71
2019-04-28T12:49:39.640Z,19.87
2019-04-28T12:50:39.630Z,20.02
2019-04-28T12:51:39.620Z,20.08
2019-04-28T12:52:39.608Z,20.39
2019-04-28T12:53:39.622Z,20.55
2019-04-28T12:54:39.590Z,20.82
2019-04-28T12:55:39.574Z,20.98
2019-04-28T12:56:39.568Z,20.92
2019-04-28T12:57:39.554Z,21.13
2019-04-28T12:58:39.570Z,21.48
2019-04-28T12:59:39.534Z,21.56
2019-04-28T13:00:39.522Z,21.71
2019-04-28T13:01:39.513Z,22.01
2019-04-28T13:02:39.502Z,22.30
2019-04-28T13:03:39.515Z,22.34
2019-04-28T13:04:39.493Z,21.35
2019-04-28T13:05:39.474Z,20.33
2019-04-28T13:06:39.459Z,20.41
2019-04-28T13:07:39.453Z,19.56